Time;durP1;ratioP1;P1;durP2;ratioP2;P2;SDS_P1;SDS_P2;PMS_P1;PMS_P2;Temp;Humidity;BMP_temperature;BMP_pressure;BME280_temperature;BME280_humidity;BME280_pressure;Samples;Min_cycle;Max_cycle;Signal;HPM_P1;HPM_P2
2022/01/12 00:00:25;;;;;;;14.95;7.47;;;;;;;4.01;62.35;101873.28;5010296;28;20503;-83
2022/01/12 00:02:52;;;;;;;21.77;7.13;;;;;;;3.99;62.27;101869.00;4996997;28;20041;-82
2022/01/12 00:05:19;;;;;;;19.17;7.07;;;;;;;4.03;62.28;101862.75;5044798;28;20593;-83
2022/01/12 00:07:49;;;;;;;19.45;6.85;;;;;;;3.98;62.17;101872.53;4997036;28;20045;-83
2022/01/12 00:10:17;;;;;;;13.45;6.47;;;;;;;4.02;62.29;101867.16;5012776;28;20056;-83
2022/01/12 00:12:45;;;;;;;15.27;6.93;;;;;;;4.00;62.34;101860.22;5026746;28;20439;-84
2022/01/12 00:15:13;;;;;;;17.83;6.55;;;;;;;3.90;62.28;101860.47;5009424;28;20119;-83
2022/01/12 00:17:40;;;;;;;17.63;7.75;;;;;;;3.93;62.28;101859.50;4982530;28;20055;-83
2022/01/12 00:20:07;;;;;;;15.50;7.05;;;;;;;3.98;62.74;101857.63;5018307;28;20084;-83
2022/01/12 00:22:37;;;;;;;20.35;7.10;;;;;;;4.07;62.35;101853.84;5019228;28;20046;-83
2022/01/12 00:33:13;;;;;;;14.85;7.03;;;;;;;4.05;62.44;101840.78;5015168;28;20144;-83
2022/01/12 00:35:42;;;;;;;15.82;6.40;;;;;;;4.09;62.55;101847.66;5043230;28;20049;-83
2022/01/12 00:38:09;;;;;;;15.80;6.38;;;;;;;4.10;62.31;101845.91;5043651;28;20050;-82
2022/01/12 00:40:41;;;;;;;14.18;6.35;;;;;;;4.09;62.04;101846.78;5024350;28;20046;-83
2022/01/12 00:43:09;;;;;;;21.87;7.07;;;;;;;4.09;62.68;101852.91;5038824;28;20128;-83
2022/01/12 00:45:41;;;;;;;13.35;5.68;;;;;;;4.14;62.45;101858.03;5000413;28;20045;-83
2022/01/12 00:48:09;;;;;;;21.38;7.32;;;;;;;4.11;62.52;101843.22;5042895;28;20072;-83
2022/01/12 00:50:36;;;;;;;15.38;7.40;;;;;;;4.10;62.54;101843.28;5038167;28;20053;-83
2022/01/12 00:53:06;;;;;;;11.80;5.80;;;;;;;4.11;62.66;101844.97;4999939;28;20716;-83
2022/01/12 00:55:33;;;;;;;13.95;5.57;;;;;;;4.10;63.21;101843.28;4997813;28;20120;-83
2022/01/12 00:58:00;;;;;;;12.10;5.28;;;;;;;4.09;63.13;101834.50;5023422;28;20049;-83
2022/01/12 01:00:28;;;;;;;14.73;5.25;;;;;;;4.11;63.16;101844.97;4979566;28;20054;-83
2022/01/12 01:02:55;;;;;;;12.98;5.65;;;;;;;4.11;63.49;101848.47;5041564;28;20042;-82
2022/01/12 01:05:24;;;;;;;12.68;5.40;;;;;;;4.09;64.02;101847.66;5002764;28;20049;-83
2022/01/12 01:07:51;;;;;;;15.10;6.75;;;;;;;4.09;64.22;101850.28;5014580;28;20444;-83
2022/01/12 01:10:45;;;;;;;14.55;6.05;;;;;;;4.08;64.33;101850.34;5019729;28;20060;-83
2022/01/12 01:13:07;;;;;;;14.77;6.05;;;;;;;4.06;64.21;101846.88;4937281;28;20131;-83
2022/01/12 01:26:42;;;;;;;13.88;6.13;;;;;;;3.98;64.38;101852.38;4936779;28;20099;-83
2022/01/12 01:29:10;;;;;;;14.90;5.78;;;;;;;3.97;64.25;101850.66;4931080;28;20522;-83
2022/01/12 01:31:39;;;;;;;13.60;5.72;;;;;;;3.96;64.54;101862.06;4944889;28;20054;-83
2022/01/12 01:34:12;;;;;;;12.80;6.28;;;;;;;3.95;64.71;101868.22;4924556;28;20051;-82
2022/01/12 01:36:44;;;;;;;15.02;5.93;;;;;;;3.92;64.71;101861.28;4937409;28;20051;-83
2022/01/12 01:39:14;;;;;;;14.48;5.25;;;;;;;3.92;64.73;101877.06;4924000;28;20393;-83
2022/01/12 01:41:44;;;;;;;11.32;5.65;;;;;;;3.91;64.43;101879.72;4921443;28;20079;-83
2022/01/12 01:54:59;;;;;;;14.07;5.82;;;;;;;3.83;64.65;101881.69;4995616;28;20042;-83
2022/01/12 01:57:27;;;;;;;12.90;5.75;;;;;;;3.84;64.52;101883.41;5003296;28;20046;-83
2022/01/12 01:59:54;;;;;;;14.35;6.13;;;;;;;3.84;64.69;101878.16;5023144;28;20049;-83
2022/01/12 02:02:21;;;;;;;10.85;5.93;;;;;;;3.83;64.73;101882.56;5044900;28;20117;-83
2022/01/12 02:04:48;;;;;;;16.17;6.88;;;;;;;3.84;64.96;101873.78;5033034;28;20053;-83
2022/01/12 02:07:15;;;;;;;16.35;5.97;;;;;;;3.84;64.79;101872.91;5020410;28;20049;-83
2022/01/12 02:09:45;;;;;;;13.73;5.80;;;;;;;3.84;65.01;101870.28;4998585;28;20046;-83
2022/01/12 02:12:28;;;;;;;12.32;5.63;;;;;;;3.82;64.96;101859.81;5001587;28;20049;-83
2022/01/12 02:14:57;;;;;;;15.43;5.97;;;;;;;3.82;65.04;101864.22;5002720;28;20045;-83
2022/01/12 02:17:31;;;;;;;12.05;5.75;;;;;;;3.80;65.18;101861.63;5028764;28;20124;-83
2022/01/12 02:36:43;;;;;;;16.50;6.95;;;;;;;3.61;65.11;101890.19;4964090;28;20496;-83
2022/01/12 02:41:56;;;;;;;19.27;7.15;;;;;;;3.59;65.18;101885.88;5007743;28;20046;-83
2022/01/12 02:55:27;;;;;;;13.23;5.95;;;;;;;3.52;65.62;101864.16;4981577;28;20560;-83
2022/01/12 02:57:55;;;;;;;13.25;5.30;;;;;;;3.52;65.29;101869.41;4980736;28;20042;-83
2022/01/12 03:00:24;;;;;;;11.73;5.93;;;;;;;3.52;65.44;101873.78;5019974;28;20388;-83
2022/01/12 03:03:02;;;;;;;15.73;5.65;;;;;;;3.49;65.38;101880.00;5014015;28;20048;-84
2022/01/12 03:05:44;;;;;;;14.32;5.85;;;;;;;3.50;65.46;101875.59;5059297;28;20046;-89
2022/01/12 03:08:14;;;;;;;11.82;5.65;;;;;;;3.49;64.90;101874.75;5040907;28;20042;-88
2022/01/12 03:10:41;;;;;;;13.07;6.55;;;;;;;3.45;64.82;101881.81;5003835;28;20401;-87
2022/01/12 03:13:08;;;;;;;15.98;5.35;;;;;;;3.44;64.47;101884.50;5031226;28;20066;-89
2022/01/12 03:15:40;;;;;;;16.35;6.38;;;;;;;3.42;64.85;101888.94;4997477;28;20484;-88
2022/01/12 03:18:08;;;;;;;14.02;5.35;;;;;;;3.40;65.01;101891.59;5011946;28;20073;-88
2022/01/12 03:20:38;;;;;;;12.10;5.65;;;;;;;3.41;64.83;101897.69;4991726;28;20061;-89
2022/01/12 03:23:06;;;;;;;15.82;6.55;;;;;;;3.39;64.66;101902.16;5039347;28;20042;-88
2022/01/12 03:25:33;;;;;;;17.00;6.57;;;;;;;3.37;64.59;101902.16;5039259;28;20081;-88
2022/01/12 03:28:03;;;;;;;20.02;6.20;;;;;;;3.36;64.88;101897.84;5033154;28;20052;-90
2022/01/12 03:30:36;;;;;;;16.10;5.93;;;;;;;3.38;65.02;101898.63;5021541;28;20050;-87
2022/01/12 03:33:13;;;;;;;13.02;5.25;;;;;;;3.35;65.26;101898.72;5015438;28;20095;-88
2022/01/12 03:40:12;;;;;;;13.43;5.47;;;;;;;3.28;65.57;101891.88;5015281;28;20441;-90
2022/01/12 03:42:39;;;;;;;14.55;5.88;;;;;;;3.28;65.65;101889.25;5002554;28;20125;-90
2022/01/12 03:45:07;;;;;;;12.18;5.63;;;;;;;3.24;65.41;101880.63;5014416;28;20060;-90
2022/01/12 03:47:33;;;;;;;13.35;5.10;;;;;;;3.24;65.39;101879.75;4994661;28;20511;-91
2022/01/12 03:50:01;;;;;;;17.25;6.65;;;;;;;3.25;65.39;101878.84;4974910;28;20048;-90
2022/01/12 03:52:28;;;;;;;19.58;6.68;;;;;;;3.24;65.75;101877.13;4980169;28;20128;-91
2022/01/12 03:54:55;;;;;;;14.85;6.55;;;;;;;3.25;65.61;101884.09;4992610;28;20037;-90
2022/01/12 03:57:22;;;;;;;15.65;6.18;;;;;;;3.25;65.50;101884.09;4970936;28;20052;-91
2022/01/12 03:59:49;;;;;;;14.60;6.05;;;;;;;3.25;65.68;101891.97;4979231;28;20037;-90
2022/01/12 04:02:15;;;;;;;15.73;7.10;;;;;;;3.23;65.65;101891.13;4994385;28;20049;-90
2022/01/12 04:05:07;;;;;;;14.70;6.40;;;;;;;3.24;65.60;101890.25;4973520;28;20057;-88
2022/01/12 04:10:15;;;;;;;17.85;7.03;;;;;;;3.19;65.84;101885.13;4963080;28;20504;-89
2022/01/12 04:12:42;;;;;;;14.55;6.70;;;;;;;3.19;65.71;101887.75;5031153;28;20054;-88
2022/01/12 04:15:09;;;;;;;17.77;7.03;;;;;;;3.19;65.38;101892.13;5041960;28;20096;-89
2022/01/12 04:17:36;;;;;;;18.80;7.80;;;;;;;3.17;65.29;101914.94;5045905;28;20045;-88
2022/01/12 04:20:03;;;;;;;21.70;7.47;;;;;;;3.16;65.73;101919.31;5050696;28;20064;-90
2022/01/12 04:26:16;;;;;;;14.07;5.50;;;;;;;3.08;65.46;101925.63;4947786;28;20041;-90
2022/01/12 04:28:44;;;;;;;15.43;6.80;;;;;;;3.08;65.51;101926.53;5026068;28;20076;-90
2022/01/12 04:31:12;;;;;;;17.58;6.05;;;;;;;3.08;65.84;101926.53;5038552;28;20084;-89
2022/01/12 04:33:40;;;;;;;17.90;7.03;;;;;;;3.08;65.83;101930.88;5004601;28;20147;-89
2022/01/12 04:36:09;;;;;;;16.15;7.80;;;;;;;3.04;65.78;101941.47;5038329;28;20120;-90
2022/01/12 04:43:10;;;;;;;12.75;5.50;;;;;;;2.97;65.79;101939.03;4990420;28;20478;-89
2022/01/12 04:45:55;;;;;;;14.75;5.70;;;;;;;2.97;65.86;101941.66;5034843;28;20444;-89
2022/01/12 04:50:55;;;;;;;18.55;6.28;;;;;;;2.97;66.15;101968.75;5018454;28;20485;-89
2022/01/12 04:53:23;;;;;;;15.75;6.43;;;;;;;2.97;66.26;101968.75;5007170;28;20108;-89
2022/01/12 04:55:50;;;;;;;16.88;7.13;;;;;;;2.96;65.80;101976.69;5011014;28;20049;-90
2022/01/12 04:58:17;;;;;;;18.20;7.15;;;;;;;2.93;66.07;101979.38;5043412;28;20566;-89
2022/01/12 05:00:45;;;;;;;17.17;7.78;;;;;;;2.93;65.99;101989.88;5040600;28;20396;-90
2022/01/12 05:14:42;;;;;;;15.30;5.43;;;;;;;2.84;66.60;101975.16;4946608;28;20370;-90
2022/01/12 05:21:27;;;;;;;14.93;6.28;;;;;;;2.74;66.54;101966.63;4964454;28;20038;-89
2022/01/12 05:28:20;;;;;;;16.58;6.85;;;;;;;2.71;66.72;101976.34;4978831;28;20034;-90
2022/01/12 05:30:49;;;;;;;19.17;7.30;;;;;;;2.72;66.46;101973.69;5014630;28;20057;-90
2022/01/12 05:37:50;;;;;;;20.00;8.02;;;;;;;2.66;66.31;101986.94;5025591;28;20501;-88
2022/01/12 05:40:47;;;;;;;18.23;7.38;;;;;;;2.59;66.85;101988.81;4995433;28;22745;-86
2022/01/12 05:43:28;;;;;;;16.13;7.20;;;;;;;2.65;66.55;101995.69;4955669;28;20104;-89
2022/01/12 05:45:58;;;;;;;19.17;7.38;;;;;;;2.65;66.66;101981.72;5019272;28;20049;-88
2022/01/12 05:51:12;;;;;;;21.42;8.23;;;;;;;2.64;66.64;101972.13;4986130;28;20045;-89
2022/01/12 05:53:39;;;;;;;16.52;6.82;;;;;;;2.63;66.58;101976.50;4999498;28;20401;-84
2022/01/12 05:56:05;;;;;;;20.85;7.70;;;;;;;2.63;66.89;101981.75;5001587;28;20056;-85
2022/01/12 05:58:32;;;;;;;15.07;7.22;;;;;;;2.63;66.79;101965.16;5041035;28;20157;-87
2022/01/12 06:01:00;;;;;;;19.40;7.70;;;;;;;2.59;66.75;101957.31;5050949;28;20135;-84
2022/01/12 06:03:31;;;;;;;15.18;6.68;;;;;;;2.58;66.67;101968.72;5006929;28;20073;-89
2022/01/12 06:06:00;;;;;;;17.75;7.18;;;;;;;2.56;66.88;101965.28;5017551;28;20058;-87
2022/01/12 06:08:32;;;;;;;18.70;7.90;;;;;;;2.54;66.77;101966.19;4990854;28;20052;-88
2022/01/12 06:10:59;;;;;;;21.52;7.53;;;;;;;2.53;66.74;101970.59;5014787;28;20058;-89
2022/01/12 06:13:26;;;;;;;19.88;8.30;;;;;;;2.52;66.85;101970.59;4996092;28;20077;-88
2022/01/12 06:15:53;;;;;;;19.38;7.32;;;;;;;2.52;66.89;101971.50;5010662;28;20042;-88
2022/01/12 06:18:24;;;;;;;16.42;7.25;;;;;;;2.50;66.76;101968.03;5020707;28;20416;-86
2022/01/12 06:20:51;;;;;;;15.60;7.10;;;;;;;2.51;66.70;101968.88;5031450;28;20053;-82
2022/01/12 06:23:44;;;;;;;22.97;8.47;;;;;;;2.47;66.98;101968.09;4981877;28;20049;-89
2022/01/12 06:26:38;;;;;;;23.23;11.88;;;;;;;2.40;67.02;101971.75;5040717;28;23821;-84
2022/01/12 06:31:39;;;;;;;28.85;10.07;;;;;;;2.44;66.97;101968.13;5019224;28;20060;-88
2022/01/12 06:34:31;;;;;;;23.63;8.63;;;;;;;2.37;67.33;101979.66;5012157;28;20037;-87
2022/01/12 06:36:58;;;;;;;24.67;8.63;;;;;;;2.42;67.14;101979.56;5031131;28;20049;-88
2022/01/12 06:39:26;;;;;;;22.40;7.97;;;;;;;2.40;66.98;101979.59;5024074;28;20061;-88
2022/01/12 06:41:55;;;;;;;17.98;8.05;;;;;;;2.39;67.05;101983.09;5003182;28;20091;-85
2022/01/12 06:44:25;;;;;;;17.23;7.30;;;;;;;2.38;67.13;101990.09;4981236;28;20393;-85
2022/01/12 06:46:55;;;;;;;18.75;7.93;;;;;;;2.39;66.83;102001.44;5024971;28;20133;-86
2022/01/12 06:49:23;;;;;;;18.73;7.47;;;;;;;2.36;66.80;102007.63;4996161;28;20050;-86
2022/01/12 06:51:50;;;;;;;17.55;7.82;;;;;;;2.36;67.12;102009.38;5026657;28;20070;-85
2022/01/12 06:54:23;;;;;;;22.13;8.25;;;;;;;2.32;67.47;102000.72;4960548;28;20051;-85
2022/01/12 06:56:51;;;;;;;18.25;7.80;;;;;;;2.34;67.19;102012.06;5035810;28;20488;-87
2022/01/12 06:59:19;;;;;;;24.30;8.02;;;;;;;2.33;67.20;102025.19;5033185;28;20081;-85
2022/01/12 07:01:48;;;;;;;24.80;8.70;;;;;;;2.30;67.08;102026.09;5029247;28;20400;-87
2022/01/12 07:04:50;;;;;;;22.48;8.90;;;;;;;2.22;67.33;102040.25;5047751;28;20381;-87
2022/01/12 07:07:22;;;;;;;24.65;8.73;;;;;;;2.27;66.92;102038.41;4977349;28;20057;-84
2022/01/12 07:09:56;;;;;;;25.45;9.10;;;;;;;2.23;67.56;102052.47;4957654;28;20870;-86
2022/01/12 07:12:26;;;;;;;24.48;8.32;;;;;;;2.24;67.40;102055.06;4962723;28;20050;-86
2022/01/12 07:14:54;;;;;;;30.23;9.07;;;;;;;2.24;67.54;102059.41;4966349;28;20460;-86
2022/01/12 07:17:21;;;;;;;32.50;9.77;;;;;;;2.24;67.35;102069.91;4990398;28;20677;-87
2022/01/12 07:19:48;;;;;;;26.38;8.73;;;;;;;2.24;67.57;102072.53;4990460;28;20042;-86
2022/01/12 07:22:15;;;;;;;35.75;14.02;;;;;;;2.24;67.56;102073.41;4962620;28;20042;-88
2022/01/12 07:24:43;;;;;;;34.65;12.18;;;;;;;2.22;67.43;102075.19;4998908;28;20050;-87
2022/01/12 07:27:10;;;;;;;37.33;15.15;;;;;;;2.24;67.26;102088.25;4990392;28;20054;-84
2022/01/12 07:29:36;;;;;;;31.42;12.88;;;;;;;2.21;67.59;102086.56;4990521;28;20050;-87
2022/01/12 07:32:04;;;;;;;28.55;13.30;;;;;;;2.22;67.76;102085.69;4988490;28;20049;-86
2022/01/12 07:34:30;;;;;;;29.38;12.88;;;;;;;2.22;67.86;102090.06;4997377;28;20109;-85
2022/01/12 07:36:57;;;;;;;30.20;12.93;;;;;;;2.21;67.71;102088.31;4943885;28;20046;-86
2022/01/12 07:39:24;;;;;;;29.80;13.18;;;;;;;2.21;68.02;102086.56;5014296;28;20049;-87
2022/01/12 07:41:50;;;;;;;27.65;12.13;;;;;;;2.21;67.91;102077.84;5012879;28;20064;-87
2022/01/12 07:44:17;;;;;;;37.30;15.73;;;;;;;2.21;67.85;102073.44;5011183;28;20464;-86
2022/01/12 07:46:44;;;;;;;38.58;18.75;;;;;;;2.22;68.43;102069.09;5011252;28;20382;-86
2022/01/12 07:49:11;;;;;;;35.83;15.32;;;;;;;2.22;68.16;102088.31;5027889;28;20046;-86
2022/01/12 07:51:37;;;;;;;33.53;13.25;;;;;;;2.23;68.28;102090.03;4994201;28;20409;-87
2022/01/12 07:54:05;;;;;;;30.92;12.45;;;;;;;2.24;67.86;102093.50;5045547;28;20501;-86
2022/01/12 07:56:32;;;;;;;24.45;11.15;;;;;;;2.22;67.90;102103.16;4968101;28;20046;-86
2022/01/12 07:59:01;;;;;;;31.40;13.40;;;;;;;2.20;67.82;102116.28;5008791;28;20042;-86
2022/01/12 08:01:28;;;;;;;29.50;12.13;;;;;;;2.21;67.99;102107.53;4991706;28;20499;-86
2022/01/12 08:03:55;;;;;;;29.83;12.07;;;;;;;2.21;67.95;102104.91;4990936;28;20072;-84
2022/01/12 08:06:21;;;;;;;30.10;12.73;;;;;;;2.23;68.38;102107.50;5003109;28;20046;-87
2022/01/12 08:08:48;;;;;;;29.35;13.40;;;;;;;2.24;68.27;102103.97;5022148;28;20408;-86
2022/01/12 08:11:15;;;;;;;39.95;16.92;;;;;;;2.23;68.43;102102.28;5021365;28;20042;-86
2022/01/12 08:13:45;;;;;;;45.63;18.23;;;;;;;2.24;68.56;102096.13;5022316;28;20497;-85
2022/01/12 08:16:12;;;;;;;42.05;15.50;;;;;;;2.23;68.09;102095.25;4987934;28;20050;-86
2022/01/12 08:18:39;;;;;;;41.50;17.85;;;;;;;2.23;68.25;102107.50;5009976;28;20046;-86
2022/01/12 08:21:06;;;;;;;39.65;17.02;;;;;;;2.22;68.45;102106.66;5000171;28;20042;-86
2022/01/12 08:23:34;;;;;;;31.15;13.95;;;;;;;2.24;68.25;102098.75;4997526;28;20052;-86
2022/01/12 08:26:05;;;;;;;32.20;14.85;;;;;;;2.21;68.47;102120.63;5012929;28;20507;-84
2022/01/12 08:28:33;;;;;;;33.42;13.35;;;;;;;2.20;68.29;102126.78;5012972;28;20385;-87
2022/01/12 08:31:00;;;;;;;27.67;13.05;;;;;;;2.20;68.32;102126.78;5025404;28;20050;-86
2022/01/12 08:33:28;;;;;;;36.75;12.90;;;;;;;2.20;68.68;102118.06;5014546;28;20385;-86
2022/01/12 08:35:56;;;;;;;34.67;13.77;;;;;;;2.18;68.96;102113.69;5012170;28;20649;-87
2022/01/12 08:38:23;;;;;;;34.25;13.63;;;;;;;2.18;68.54;102123.31;5035669;28;20050;-86
2022/01/12 08:40:51;;;;;;;24.67;12.13;;;;;;;2.18;68.54;102120.69;5010890;28;20058;-85
2022/01/12 08:43:17;;;;;;;36.13;13.68;;;;;;;2.17;68.66;102124.22;5015215;28;20048;-87
2022/01/12 08:45:45;;;;;;;33.97;13.57;;;;;;;2.18;68.68;102139.03;4995005;28;20153;-85
2022/01/12 08:48:12;;;;;;;40.67;16.45;;;;;;;2.16;68.72;102143.44;5002453;28;20045;-86
2022/01/12 08:50:39;;;;;;;41.13;15.13;;;;;;;2.19;68.69;102153.91;5043301;28;20100;-86
2022/01/12 08:53:06;;;;;;;40.92;15.57;;;;;;;2.20;68.83;102149.50;5021590;28;20045;-85
2022/01/12 08:55:32;;;;;;;39.50;14.68;;;;;;;2.20;68.67;102165.22;4975680;28;20505;-84
2022/01/12 08:57:59;;;;;;;34.10;13.32;;;;;;;2.22;68.79;102176.56;5009637;28;20046;-85
2022/01/12 09:00:27;;;;;;;38.42;13.27;;;;;;;2.20;68.64;102176.56;4994206;28;20045;-84
2022/01/12 09:02:54;;;;;;;43.58;15.23;;;;;;;2.20;68.82;102180.97;4985127;28;20096;-86
2022/01/12 09:05:21;;;;;;;42.78;18.10;;;;;;;2.20;68.65;102199.31;4994421;28;20533;-84
2022/01/12 09:07:48;;;;;;;46.38;18.27;;;;;;;2.22;68.53;102187.91;4968837;28;20045;-84
2022/01/12 09:10:15;;;;;;;40.15;16.98;;;;;;;2.24;68.59;102185.25;4983273;28;20123;-85
2022/01/12 09:12:42;;;;;;;48.05;18.35;;;;;;;2.25;68.89;102187.84;5046826;28;20461;-85
2022/01/12 09:15:11;;;;;;;42.78;17.60;;;;;;;2.26;68.93;102196.59;5014461;28;20038;-85
2022/01/12 09:17:39;;;;;;;43.83;18.50;;;;;;;2.25;68.89;102200.09;5013275;28;20500;-85
2022/01/12 09:20:07;;;;;;;42.45;17.88;;;;;;;2.29;69.16;102194.78;5019571;28;20053;-85
2022/01/12 09:22:35;;;;;;;48.05;19.20;;;;;;;2.32;69.31;102194.75;4991232;28;20069;-86
2022/01/12 09:25:02;;;;;;;46.00;16.42;;;;;;;2.33;68.90;102190.34;5002118;28;20054;-87
2022/01/12 09:27:31;;;;;;;54.88;19.00;;;;;;;2.34;68.83;102200.81;4994866;28;20046;-86
2022/01/12 09:29:58;;;;;;;39.95;17.52;;;;;;;2.36;69.25;102203.41;4993184;28;20097;-86
2022/01/12 09:32:25;;;;;;;42.53;15.95;;;;;;;2.37;69.43;102206.00;4996415;28;20046;-86
2022/01/12 09:34:51;;;;;;;44.38;17.95;;;;;;;2.39;69.42;102206.88;5007952;28;20624;-86
2022/01/12 09:37:21;;;;;;;42.33;18.27;;;;;;;2.41;69.68;102212.06;5025816;28;20050;-86
2022/01/12 09:39:49;;;;;;;43.75;19.10;;;;;;;2.42;69.42;102218.16;4993627;28;20057;-84
2022/01/12 09:42:16;;;;;;;44.17;17.67;;;;;;;2.44;69.52;102216.38;5027796;28;20044;-85
2022/01/12 09:44:46;;;;;;;47.90;16.92;;;;;;;2.44;69.45;102219.00;4979595;28;20049;-86
2022/01/12 09:47:14;;;;;;;37.13;16.45;;;;;;;2.42;69.27;102215.53;5010447;28;20050;-85
2022/01/12 09:49:43;;;;;;;38.58;15.93;;;;;;;2.45;69.16;102224.25;5012354;28;20034;-86
2022/01/12 09:52:11;;;;;;;38.00;16.38;;;;;;;2.44;69.10;102219.00;4995918;28;20452;-87
2022/01/12 09:54:38;;;;;;;50.20;17.25;;;;;;;2.43;69.37;102226.03;4996734;28;20041;-86
2022/01/12 09:57:06;;;;;;;38.60;16.17;;;;;;;2.47;69.30;102226.81;5011568;28;20053;-85
2022/01/12 09:59:33;;;;;;;39.75;14.35;;;;;;;2.48;69.36;102220.72;5015411;28;20038;-86
2022/01/12 10:02:00;;;;;;;34.33;14.82;;;;;;;2.51;69.37;102226.75;5010288;28;20053;-86
2022/01/12 10:04:29;;;;;;;39.95;14.35;;;;;;;2.53;69.30;102240.72;5015323;28;20520;-86
2022/01/12 10:07:02;;;;;;;32.55;14.40;;;;;;;2.53;69.18;102237.22;5012877;28;20049;-86
2022/01/12 10:09:34;;;;;;;;;;;;;;;2.41;69.42;102229.56;5065170;28;20161;-86
2022/01/12 10:12:05;;;;;;;30.75;13.15;;;;;;;2.54;69.34;102231.09;5035038;28;20702;-86
2022/01/12 10:14:42;;;;;;;31.85;14.25;;;;;;;2.55;68.98;102232.84;4995195;28;20400;-86
2022/01/12 10:17:10;;;;;;;;;;;;;;;2.45;69.22;102218.13;5012420;28;20067;-86
2022/01/12 10:19:37;;;;;;;30.10;12.48;;;;;;;2.57;69.14;102217.91;5018418;28;19925;-86
2022/01/12 10:22:07;;;;;;;29.40;13.55;;;;;;;2.60;68.99;102221.38;5006712;28;20038;-86
2022/01/12 10:24:40;;;;;;;35.10;14.70;;;;;;;2.60;68.91;102218.75;4993001;28;20489;-85
2022/01/12 10:27:13;;;;;;;34.13;14.73;;;;;;;2.59;68.63;102209.13;4989493;28;20525;-85
2022/01/12 10:29:40;;;;;;;30.15;14.90;;;;;;;2.61;69.13;102215.22;4997630;28;20050;-86
2022/01/12 10:32:10;;;;;;;44.30;15.10;;;;;;;2.65;69.07;102223.06;4994845;28;20501;-86
2022/01/12 10:34:44;;;;;;;40.60;16.15;;;;;;;2.64;69.06;102214.28;4997997;28;20049;-85
2022/01/12 10:37:16;;;;;;;37.35;14.98;;;;;;;2.71;69.20;102212.44;5027715;28;20076;-85
2022/01/12 10:39:48;;;;;;;34.35;15.38;;;;;;;2.70;69.05;102208.09;5001845;28;20039;-85
2022/01/12 10:42:20;;;;;;;37.93;15.10;;;;;;;2.70;69.07;102208.09;4996442;28;20101;-86
2022/01/12 10:44:50;;;;;;;40.30;16.10;;;;;;;2.70;69.16;102195.84;5042156;28;20586;-85
2022/01/12 10:47:20;;;;;;;36.72;15.30;;;;;;;2.70;68.94;102195.00;5007225;28;20685;-82
2022/01/12 10:49:56;;;;;;;31.38;15.25;;;;;;;2.66;69.26;102199.41;5039343;28;20042;-85
2022/01/12 10:52:24;;;;;;;37.70;16.13;;;;;;;2.71;69.11;102184.44;5044963;28;20107;-86
2022/01/12 10:55:10;;;;;;;36.22;15.05;;;;;;;2.73;69.15;102184.44;4997108;28;20041;-85
2022/01/12 10:57:39;;;;;;;40.25;15.30;;;;;;;2.76;69.49;102182.59;5034284;28;20050;-85
2022/01/12 11:00:09;;;;;;;34.60;14.73;;;;;;;2.78;69.22;102187.84;4998274;28;20053;-85
2022/01/12 11:02:38;;;;;;;36.00;15.70;;;;;;;2.81;69.19;102175.50;5009785;28;20473;-86
2022/01/12 11:05:07;;;;;;;38.55;15.20;;;;;;;2.86;69.56;102177.19;5039085;28;20050;-85
2022/01/12 11:07:34;;;;;;;40.53;15.68;;;;;;;2.89;69.52;102166.63;5011746;28;20049;-85
2022/01/12 11:10:04;;;;;;;35.92;15.07;;;;;;;2.93;69.20;102165.69;5007108;28;20041;-85
2022/01/12 11:12:30;;;;;;;40.00;16.73;;;;;;;2.97;69.32;102172.59;5027792;28;20050;-85
2022/01/12 11:14:57;;;;;;;40.85;16.25;;;;;;;2.99;68.96;102173.44;5008182;28;20652;-86
2022/01/12 11:17:24;;;;;;;33.60;15.43;;;;;;;3.00;68.92;102162.03;4988804;28;20045;-86
2022/01/12 11:20:18;;;;;;;37.00;16.27;;;;;;;2.92;68.19;102163.94;4996055;28;20481;-85
2022/01/12 11:23:01;;;;;;;43.13;16.13;;;;;;;2.91;68.49;102164.84;5025171;28;20044;-86
2022/01/12 11:25:42;;;;;;;37.85;17.17;;;;;;;2.96;68.51;102160.38;5037671;28;20131;-86
2022/01/12 11:29:01;;;;;;;35.47;15.35;;;;;;;2.90;68.39;102156.13;5025748;28;20049;-87
2022/01/12 11:31:35;;;;;;;33.22;14.52;;;;;;;2.98;68.53;102148.09;4966999;28;20053;-86
2022/01/12 11:34:02;;;;;;;38.60;16.77;;;;;;;3.03;68.58;102154.97;5016011;28;20041;-86
2022/01/12 11:41:34;;;;;;;41.22;16.55;;;;;;;2.99;68.18;102145.44;5011793;28;20034;-89
2022/01/12 11:44:00;;;;;;;36.03;16.52;;;;;;;3.10;68.15;102139.09;4981528;28;20497;-87
2022/01/12 11:46:45;;;;;;;39.15;16.60;;;;;;;3.05;68.26;102141.81;5013494;28;21425;-86
2022/01/12 11:49:24;;;;;;;40.70;16.02;;;;;;;3.10;68.23;102139.94;4971667;28;20790;-86
2022/01/12 11:51:51;;;;;;;45.95;16.60;;;;;;;3.17;68.52;102136.31;5024466;28;20114;-85
2022/01/12 11:54:47;;;;;;;38.28;19.00;;;;;;;3.28;72.50;102125.56;5001733;28;20060;-89
2022/01/12 11:57:32;;;;;;;41.53;16.60;;;;;;;3.35;69.30;102134.19;4935851;28;20049;-88
2022/01/12 12:00:11;;;;;;;43.72;17.52;;;;;;;3.40;68.96;102132.34;4908624;28;20058;-88
2022/01/12 12:02:41;;;;;;;36.35;16.00;;;;;;;3.41;68.40;102137.56;4961111;28;20564;-86
2022/01/12 12:05:17;;;;;;;35.45;15.95;;;;;;;3.39;68.27;102139.34;4947578;28;20047;-86
2022/01/12 12:16:58;;;;;;;34.75;14.70;;;;;;;3.24;67.53;102127.41;4915991;28;20044;-85
2022/01/12 12:19:52;;;;;;;30.42;13.57;;;;;;;3.24;67.65;102122.16;4884912;29;20495;-88
2022/01/12 12:22:46;;;;;;;41.42;16.10;;;;;;;3.29;67.51;102126.47;4892046;28;20126;-86
2022/01/12 12:25:17;;;;;;;38.00;16.02;;;;;;;3.36;67.44;102126.31;4903662;28;20443;-86
2022/01/12 12:31:31;;;;;;;34.25;15.85;;;;;;;3.29;67.16;102116.81;4975162;28;20064;-86
2022/01/12 12:34:21;;;;;;;35.95;15.30;;;;;;;3.25;66.81;102123.03;4973758;28;20042;-86
2022/01/12 12:37:07;;;;;;;41.05;15.55;;;;;;;3.19;66.47;102115.28;5019659;28;20037;-86
2022/01/12 12:39:36;;;;;;;33.25;14.32;;;;;;;3.22;66.67;102126.56;5021970;28;20053;-86
2022/01/12 12:42:05;;;;;;;36.03;15.38;;;;;;;3.22;66.53;102126.56;5050992;28;20237;-86
2022/01/12 12:48:43;;;;;;;36.88;14.95;;;;;;;3.16;66.07;102158.22;4977047;28;20440;-86
2022/01/12 12:51:14;;;;;;;40.42;15.77;;;;;;;3.14;66.22;102152.13;5023464;28;20049;-87
2022/01/12 12:53:43;;;;;;;35.80;15.60;;;;;;;3.13;66.39;102149.53;4984100;28;20049;-85
2022/01/12 12:56:14;;;;;;;36.70;15.93;;;;;;;3.13;66.45;102128.53;5014062;28;20052;-86
2022/01/12 12:58:48;;;;;;;33.45;16.20;;;;;;;3.12;66.29;102127.66;4990444;28;20496;-86
2022/01/12 13:01:17;;;;;;;37.17;15.45;;;;;;;3.16;66.68;102121.47;5017105;28;20053;-86
2022/01/12 13:03:58;;;;;;;34.90;15.15;;;;;;;3.13;66.51;102129.41;5038535;28;20634;-87
2022/01/12 13:06:31;;;;;;;35.15;15.52;;;;;;;3.20;66.97;102122.25;4998326;28;20524;-85
2022/01/12 13:09:48;;;;;;;41.92;15.63;;;;;;;3.12;66.66;102132.91;5027721;28;20037;-87
2022/01/12 13:12:15;;;;;;;38.10;16.88;;;;;;;3.20;66.89;102127.50;4927069;28;20500;-87
2022/01/12 13:14:44;;;;;;;44.33;17.35;;;;;;;3.20;66.59;102111.75;4987537;28;20065;-86
2022/01/12 13:17:12;;;;;;;35.17;15.40;;;;;;;3.20;66.85;102111.75;5003388;28;20482;-86
2022/01/12 13:22:41;;;;;;;33.78;13.27;;;;;;;3.14;66.93;102128.50;5019666;28;20943;-85
2022/01/12 13:25:33;;;;;;;39.72;16.05;;;;;;;3.10;67.02;102123.34;5008812;28;20046;-88
2022/01/12 13:28:54;;;;;;;36.53;16.05;;;;;;;3.10;67.45;102124.19;4937531;28;20073;-86
2022/01/12 13:31:22;;;;;;;36.03;16.90;;;;;;;3.16;67.60;102124.09;4980562;28;20046;-86
2022/01/12 13:33:51;;;;;;;44.75;18.60;;;;;;;3.18;67.31;102121.41;4995010;28;20046;-86
2022/01/12 13:36:24;;;;;;;41.85;17.90;;;;;;;3.17;66.96;102125.81;5036824;28;20053;-86
2022/01/12 13:39:00;;;;;;;38.95;16.20;;;;;;;3.15;67.29;102138.09;5026486;28;20060;-87
2022/01/12 13:41:31;;;;;;;36.08;14.85;;;;;;;3.20;67.31;102138.00;4879119;28;26118;-87
2022/01/12 13:44:11;;;;;;;36.13;15.73;;;;;;;3.16;67.53;102131.97;4973744;28;20045;-83
2022/01/12 13:50:35;;;;;;;36.53;14.98;;;;;;;3.18;67.68;102118.78;4828113;28;70267;-86
2022/01/12 13:53:04;;;;;;;39.88;15.30;;;;;;;3.21;67.50;102116.97;4980552;28;20453;-88
2022/01/12 13:55:32;;;;;;;34.58;15.07;;;;;;;3.21;67.65;102119.59;4998311;28;20078;-87